createdAt,value
2022-08-07T00:00:18.690Z,20.79
2022-08-07T00:02:47.268Z,21.17
2022-08-07T00:05:15.237Z,21.38
2022-08-07T00:07:42.769Z,20.88
2022-08-07T00:10:30.393Z,20.91
2022-08-07T00:13:02.043Z,21.53
2022-08-07T00:15:38.082Z,21.14
2022-08-07T00:18:20.264Z,21.14
2022-08-07T00:20:55.124Z,20.89
2022-08-07T00:23:24.556Z,20.56
2022-08-07T00:26:00.073Z,21.26
2022-08-07T00:28:33.572Z,21.11
2022-08-07T00:31:05.959Z,21.54
2022-08-07T00:33:35.645Z,20.97
2022-08-07T00:36:04.391Z,21.69
2022-08-07T00:38:33.364Z,21.82
2022-08-07T00:41:01.384Z,22.24
2022-08-07T00:44:02.024Z,21.02
2022-08-07T00:46:16.892Z,20.93
2022-08-07T00:48:45.689Z,21.22
2022-08-07T00:51:17.619Z,21.75
2022-08-07T00:53:50.775Z,20.61
2022-08-07T00:56:23.526Z,20.98
2022-08-07T00:58:58.866Z,21.16
2022-08-07T01:01:26.656Z,20.71
2022-08-07T01:04:00.033Z,20.14
2022-08-07T01:06:29.462Z,20.44
2022-08-07T01:08:58.564Z,20.79
2022-08-07T01:12:10.064Z,20.86
2022-08-07T01:14:21.304Z,20.12
2022-08-07T01:16:56.890Z,20.43
2022-08-07T01:19:27.147Z,20.71
2022-08-07T01:22:00.470Z,21.52
2022-08-07T01:24:31.108Z,20.75
2022-08-07T01:27:00.348Z,20.16
2022-08-07T01:29:31.444Z,21.02
2022-08-07T01:32:05.444Z,21.05
2022-08-07T01:34:33.750Z,20.87
2022-08-07T01:37:02.408Z,21.53
2022-08-07T01:39:41.154Z,20.52
2022-08-07T01:42:37.994Z,20.74
2022-08-07T01:45:10.089Z,20.55
2022-08-07T01:48:18.254Z,20.58
2022-08-07T01:50:38.323Z,21.69
2022-08-07T01:53:21.095Z,21.39
2022-08-07T01:55:53.806Z,21.47
2022-08-07T01:58:29.451Z,21.16
2022-08-07T02:01:09.703Z,21.59
2022-08-07T02:03:48.552Z,21.16
2022-08-07T02:06:31.867Z,20.76
2022-08-07T02:09:04.393Z,21.55
2022-08-07T02:12:03.894Z,21.58
2022-08-07T02:14:40.403Z,20.44
2022-08-07T02:17:13.594Z,20.23
2022-08-07T02:20:04.525Z,21.16
2022-08-07T02:22:38.288Z,21.83
2022-08-07T02:25:13.907Z,21.98
2022-08-07T02:27:51.952Z,21.10
2022-08-07T02:30:21.148Z,20.37
2022-08-07T02:33:01.009Z,20.49
2022-08-07T02:36:29.028Z,20.67
2022-08-07T02:38:31.895Z,20.88
2022-08-07T02:41:01.368Z,21.30
2022-08-07T02:43:33.826Z,20.27
2022-08-07T02:46:02.850Z,21.44
2022-08-07T02:48:31.660Z,21.48
2022-08-07T02:51:06.731Z,20.85
2022-08-07T02:53:38.883Z,20.46
2022-08-07T02:56:17.547Z,21.77
2022-08-07T02:58:50.798Z,21.15
2022-08-07T03:01:36.123Z,21.46
2022-08-07T03:04:13.059Z,20.96
2022-08-07T03:06:45.939Z,21.84
2022-08-07T03:09:14.763Z,21.39
2022-08-07T03:12:05.320Z,21.86
2022-08-07T03:14:36.370Z,21.93
2022-08-07T03:17:05.358Z,21.63
2022-08-07T03:19:37.411Z,20.78
2022-08-07T03:22:06.821Z,21.29
2022-08-07T03:24:34.901Z,21.98
2022-08-07T03:27:09.053Z,21.70
2022-08-07T03:29:46.183Z,21.02
2022-08-07T03:32:29.728Z,20.88
2022-08-07T03:35:01.077Z,21.59
2022-08-07T03:37:54.107Z,21.13
2022-08-07T03:40:30.837Z,21.22
2022-08-07T03:43:00.580Z,21.90
2022-08-07T03:45:31.041Z,21.97
2022-08-07T03:48:00.728Z,20.81
2022-08-07T03:50:30.006Z,20.99
2022-08-07T03:52:59.857Z,21.83
2022-08-07T03:55:46.097Z,21.16
2022-08-07T03:59:06.730Z,21.26
2022-08-07T04:01:13.876Z,21.59
2022-08-07T04:03:53.650Z,21.60
2022-08-07T04:06:37.594Z,21.69
2022-08-07T04:09:08.359Z,21.10
2022-08-07T04:12:24.614Z,21.14
2022-08-07T04:14:38.144Z,21.30
2022-08-07T04:17:19.928Z,20.58
2022-08-07T04:19:52.877Z,21.22
2022-08-07T04:22:29.341Z,21.23
2022-08-07T04:25:01.102Z,20.62
2022-08-07T04:27:35.704Z,21.70
2022-08-07T04:30:11.662Z,21.92
2022-08-07T04:32:44.933Z,21.20
2022-08-07T04:35:16.464Z,21.26
2022-08-07T04:38:02.842Z,21.60
2022-08-07T04:40:32.404Z,21.75
2022-08-07T04:43:01.945Z,21.00
2022-08-07T04:46:01.693Z,20.99
2022-08-07T04:48:38.553Z,20.92
2022-08-07T04:51:28.544Z,21.79
2022-08-07T04:54:33.326Z,21.84
2022-08-07T04:58:24.121Z,21.10
2022-08-07T05:00:30.641Z,20.54
2022-08-07T05:03:16.786Z,21.84
2022-08-07T05:06:16.422Z,21.30
2022-08-07T05:09:00.878Z,21.90
2022-08-07T05:11:57.035Z,22.23
2022-08-07T05:14:52.508Z,21.73
2022-08-07T05:17:51.548Z,21.28
2022-08-07T05:20:12.414Z,21.78
2022-08-07T05:22:41.779Z,20.79
2022-08-07T05:25:11.754Z,21.06
2022-08-07T05:28:03.550Z,20.57
2022-08-07T05:30:42.922Z,20.69
2022-08-07T05:33:11.899Z,20.34
2022-08-07T05:35:41.918Z,21.47
2022-08-07T05:38:10.751Z,21.02
2022-08-07T05:40:50.290Z,22.02
2022-08-07T05:43:19.483Z,21.28
2022-08-07T05:46:07.299Z,21.56
2022-08-07T05:48:35.533Z,22.56
2022-08-07T05:51:04.021Z,22.72
2022-08-07T05:54:12.940Z,22.41
2022-08-07T05:56:29.926Z,22.57
2022-08-07T05:58:59.445Z,22.23
2022-08-07T06:01:35.919Z,22.29
2022-08-07T06:04:05.382Z,22.73
2022-08-07T06:06:35.040Z,22.75
2022-08-07T06:09:04.576Z,21.84
2022-08-07T06:11:34.664Z,21.58
2022-08-07T06:14:12.014Z,22.13
2022-08-07T06:16:44.369Z,22.06
2022-08-07T06:19:52.143Z,21.49
2022-08-07T06:22:16.647Z,22.96
2022-08-07T06:25:00.904Z,23.60
2022-08-07T06:27:59.631Z,23.80
2022-08-07T06:30:24.297Z,23.54
2022-08-07T06:33:15.582Z,23.00
2022-08-07T06:35:48.148Z,23.29
2022-08-07T06:38:32.121Z,23.82
2022-08-07T06:41:00.517Z,22.83
2022-08-07T06:43:39.230Z,22.68
2022-08-07T06:46:12.222Z,22.89
2022-08-07T06:48:41.881Z,23.01
2022-08-07T06:51:31.303Z,23.75
2022-08-07T06:55:29.351Z,23.11
2022-08-07T06:56:52.082Z,23.73
2022-08-07T07:00:12.200Z,23.68
2022-08-07T07:02:53.965Z,24.23
2022-08-07T07:05:12.582Z,22.68
2022-08-07T07:07:59.288Z,22.91
2022-08-07T07:10:31.476Z,23.96
2022-08-07T07:13:10.012Z,23.47
2022-08-07T07:15:43.124Z,23.35
2022-08-07T07:18:47.932Z,23.79
2022-08-07T07:21:20.906Z,23.65
2022-08-07T07:24:08.992Z,23.60
2022-08-07T07:26:37.901Z,23.27
2022-08-07T07:29:55.988Z,24.21
2022-08-07T07:32:02.520Z,24.28
2022-08-07T07:34:32.303Z,25.05
2022-08-07T07:37:14.759Z,24.71
2022-08-07T07:39:55.336Z,24.38
2022-08-07T07:42:33.033Z,24.32
2022-08-07T07:45:02.499Z,25.18
2022-08-07T07:47:42.819Z,25.22
2022-08-07T07:50:32.840Z,24.99
2022-08-07T07:53:20.410Z,25.08
2022-08-07T07:55:57.707Z,24.58
2022-08-07T07:58:40.197Z,25.44
2022-08-07T08:02:01.812Z,26.44
2022-08-07T08:04:09.987Z,26.71
2022-08-07T08:06:50.699Z,26.87
2022-08-07T08:09:22.779Z,26.92
2022-08-07T08:12:02.199Z,25.64
2022-08-07T08:14:36.361Z,25.59
2022-08-07T08:17:55.677Z,27.01
2022-08-07T08:20:18.824Z,27.71
2022-08-07T08:23:08.178Z,26.64
2022-08-07T08:25:58.243Z,27.46
2022-08-07T08:28:37.732Z,26.09
2022-08-07T08:31:15.977Z,26.12
2022-08-07T08:33:49.590Z,25.79
2022-08-07T08:36:29.596Z,26.14
2022-08-07T08:39:01.962Z,26.67
2022-08-07T08:41:58.854Z,27.22
2022-08-07T08:44:53.880Z,28.00
2022-08-07T08:47:27.083Z,29.15
2022-08-07T08:50:38.819Z,28.87
2022-08-07T08:53:57.115Z,29.39
2022-08-07T08:56:31.287Z,29.77
2022-08-07T08:59:14.132Z,30.60
2022-08-07T09:01:49.529Z,30.98
2022-08-07T09:04:40.689Z,31.01
2022-08-07T09:07:45.995Z,29.62
2022-08-07T09:10:28.337Z,28.92
2022-08-07T09:13:19.567Z,30.09
2022-08-07T09:16:21.525Z,30.81
2022-08-07T09:19:52.095Z,30.27
2022-08-07T09:24:27.447Z,28.12
2022-08-07T09:25:14.457Z,28.95
2022-08-07T09:28:05.025Z,29.51
2022-08-07T09:30:46.223Z,28.48
2022-08-07T09:33:57.538Z,28.47
2022-08-07T09:36:37.290Z,28.76
2022-08-07T09:39:55.207Z,28.53
2022-08-07T09:42:50.252Z,28.59
2022-08-07T09:47:24.104Z,28.74
2022-08-07T09:50:01.712Z,28.82
2022-08-07T09:52:34.685Z,28.10
2022-08-07T09:55:02.525Z,27.89
2022-08-07T09:57:58.236Z,29.90
2022-08-07T10:00:31.956Z,30.58
2022-08-07T10:04:07.173Z,30.22
2022-08-07T10:06:42.803Z,30.44
2022-08-07T10:10:00.329Z,31.04
2022-08-07T10:12:55.315Z,29.98
2022-08-07T10:15:44.433Z,29.13
2022-08-07T10:18:35.818Z,28.69
2022-08-07T10:21:19.966Z,29.88
2022-08-07T10:24:41.074Z,30.83
2022-08-07T10:27:51.105Z,31.52
2022-08-07T10:30:20.354Z,31.01
2022-08-07T10:33:08.485Z,31.63
2022-08-07T10:36:11.230Z,31.06
2022-08-07T10:38:51.229Z,31.71
2022-08-07T10:41:51.749Z,30.92
2022-08-07T10:44:37.369Z,30.56
2022-08-07T10:47:14.225Z,30.60
2022-08-07T10:49:51.089Z,29.90
2022-08-07T10:52:31.756Z,30.08
2022-08-07T10:55:37.687Z,30.29
2022-08-07T10:58:31.950Z,29.90
2022-08-07T11:01:11.766Z,29.92
2022-08-07T11:03:54.990Z,30.02
2022-08-07T11:06:51.030Z,30.58
2022-08-07T11:10:10.159Z,30.99
2022-08-07T11:12:38.865Z,29.90
2022-08-07T11:15:31.848Z,30.65
2022-08-07T11:21:14.083Z,31.76
2022-08-07T11:23:48.465Z,32.51
2022-08-07T11:26:34.055Z,32.04
2022-08-07T11:29:13.121Z,32.49
2022-08-07T11:32:08.910Z,32.96
2022-08-07T11:34:46.970Z,33.33
2022-08-07T11:37:38.611Z,33.71
2022-08-07T11:40:50.038Z,33.87
2022-08-07T11:43:54.280Z,34.49
2022-08-07T11:46:44.410Z,34.35
2022-08-07T11:50:25.271Z,34.59
2022-08-07T11:53:05.239Z,34.38
2022-08-07T11:56:09.273Z,34.30
2022-08-07T12:00:08.320Z,34.41
2022-08-07T12:02:33.143Z,33.86
2022-08-07T12:05:28.850Z,32.57
2022-08-07T12:08:25.846Z,32.79
2022-08-07T12:11:20.414Z,33.77
2022-08-07T12:14:08.503Z,33.99
2022-08-07T12:16:44.554Z,33.63
2022-08-07T12:19:35.324Z,33.13
2022-08-07T12:22:36.986Z,32.58
2022-08-07T12:26:21.338Z,32.54
2022-08-07T12:28:57.463Z,33.87
2022-08-07T12:32:02.220Z,33.61
2022-08-07T12:34:33.355Z,33.28
2022-08-07T12:37:01.264Z,33.63
2022-08-07T12:39:42.439Z,33.89
2022-08-07T12:42:13.170Z,34.19
2022-08-07T12:44:45.939Z,33.83
2022-08-07T12:47:58.158Z,34.51
2022-08-07T12:50:49.063Z,35.14
2022-08-07T12:53:24.434Z,32.58
2022-08-07T12:56:10.542Z,34.07
2022-08-07T12:58:43.962Z,34.23
2022-08-07T13:01:39.563Z,34.61
2022-08-07T13:04:32.652Z,34.75
2022-08-07T13:07:17.958Z,34.99
2022-08-07T13:10:37.493Z,34.97
2022-08-07T13:13:09.457Z,35.08
2022-08-07T13:16:06.194Z,34.52
2022-08-07T13:18:48.981Z,33.16
2022-08-07T13:21:50.151Z,33.61
2022-08-07T13:24:52.429Z,33.75
2022-08-07T13:28:05.635Z,34.04
2022-08-07T13:30:19.758Z,33.82
2022-08-07T13:34:31.954Z,34.85
2022-08-07T13:36:17.424Z,34.65
2022-08-07T13:39:12.718Z,34.78
2022-08-07T13:41:54.732Z,35.04
2022-08-07T13:44:38.973Z,33.82
2022-08-07T13:47:09.330Z,33.79
2022-08-07T13:50:34.181Z,33.57
2022-08-07T13:52:39.578Z,33.97
2022-08-07T13:55:19.289Z,34.52
2022-08-07T13:58:31.709Z,34.36
2022-08-07T14:01:20.364Z,34.72
2022-08-07T14:04:05.237Z,34.33
2022-08-07T14:06:38.729Z,34.41
2022-08-07T14:09:10.030Z,34.53
2022-08-07T14:12:07.216Z,34.41
2022-08-07T14:14:51.546Z,34.51
2022-08-07T14:18:12.236Z,34.20
2022-08-07T14:20:42.483Z,34.52
2022-08-07T14:23:11.535Z,33.89
2022-08-07T14:25:45.990Z,34.53
2022-08-07T14:28:17.015Z,34.71
2022-08-07T14:30:52.034Z,35.11
2022-08-07T14:33:22.468Z,34.53
2022-08-07T14:35:58.684Z,34.56
2022-08-07T14:38:31.265Z,35.00
2022-08-07T14:41:14.932Z,34.10
2022-08-07T14:43:59.200Z,34.41
2022-08-07T14:46:33.206Z,34.92
2022-08-07T14:49:57.581Z,34.85
2022-08-07T14:52:03.820Z,34.90
2022-08-07T14:54:35.703Z,34.57
2022-08-07T14:57:18.728Z,34.30
2022-08-07T15:05:24.835Z,34.85
2022-08-07T15:07:53.660Z,34.37
2022-08-07T15:13:19.406Z,34.62
2022-08-07T15:15:52.541Z,33.31
2022-08-07T15:18:33.659Z,34.01
2022-08-07T15:26:58.666Z,34.94
2022-08-07T15:30:04.544Z,35.23
2022-08-07T15:35:15.190Z,34.80
2022-08-07T15:38:17.443Z,34.90
2022-08-07T15:40:37.992Z,34.75
2022-08-07T15:43:53.558Z,34.59
2022-08-07T15:46:32.360Z,35.41
2022-08-07T15:49:12.960Z,34.51
2022-08-07T15:54:33.985Z,34.11
2022-08-07T15:57:10.643Z,33.88
2022-08-07T15:59:59.219Z,33.77
2022-08-07T16:02:31.248Z,34.28
2022-08-07T16:05:03.512Z,33.88
2022-08-07T16:08:30.419Z,34.19
2022-08-07T16:10:26.169Z,33.90
2022-08-07T16:13:57.971Z,33.60
2022-08-07T16:16:47.869Z,33.54
2022-08-07T16:19:58.954Z,33.93
2022-08-07T16:22:38.788Z,33.74
2022-08-07T16:25:54.141Z,34.24
2022-08-07T16:30:07.439Z,33.61
2022-08-07T16:31:51.045Z,33.74
2022-08-07T16:34:23.797Z,33.69
2022-08-07T16:37:02.710Z,33.86
2022-08-07T16:40:09.516Z,33.42
2022-08-07T16:43:04.368Z,33.41
2022-08-07T16:46:11.039Z,33.34
2022-08-07T16:50:20.804Z,33.69
2022-08-07T16:52:51.819Z,33.76
2022-08-07T16:55:48.066Z,33.18
2022-08-07T16:59:10.173Z,33.32
2022-08-07T17:01:49.410Z,33.20
2022-08-07T17:04:36.969Z,33.56
2022-08-07T17:07:51.589Z,32.98
2022-08-07T17:10:32.349Z,32.97
2022-08-07T17:13:03.579Z,32.88
2022-08-07T17:15:44.448Z,32.60
2022-08-07T17:18:27.515Z,32.66
2022-08-07T17:20:55.899Z,32.15
2022-08-07T17:23:23.175Z,32.53
2022-08-07T17:26:06.067Z,32.33
2022-08-07T17:30:14.284Z,32.17
2022-08-07T17:32:58.366Z,32.09
2022-08-07T17:35:50.411Z,31.96
2022-08-07T17:38:33.860Z,32.03
2022-08-07T17:42:04.455Z,31.96
2022-08-07T17:44:50.722Z,31.74
2022-08-07T17:47:37.696Z,31.89
2022-08-07T17:50:22.619Z,31.77
2022-08-07T17:53:06.023Z,31.75
2022-08-07T17:56:15.455Z,31.67
2022-08-07T17:58:56.795Z,31.58
2022-08-07T18:01:36.754Z,31.63
2022-08-07T18:04:35.330Z,31.64
2022-08-07T18:07:22.904Z,31.68
2022-08-07T18:10:37.381Z,31.57
2022-08-07T18:13:43.511Z,31.63
2022-08-07T18:16:34.331Z,31.53
2022-08-07T18:21:04.512Z,31.57
2022-08-07T18:22:26.517Z,31.85
2022-08-07T18:25:01.804Z,31.92
2022-08-07T18:28:05.003Z,31.57
2022-08-07T18:31:04.234Z,31.33
2022-08-07T18:33:55.083Z,30.99
2022-08-07T18:37:00.385Z,30.31
2022-08-07T18:40:08.524Z,29.01
2022-08-07T18:42:43.395Z,29.18
2022-08-07T18:45:39.881Z,29.48
2022-08-07T18:50:05.355Z,29.88
2022-08-07T18:52:38.899Z,28.44
2022-08-07T18:54:30.767Z,29.06
2022-08-07T18:57:31.048Z,28.94
2022-08-07T19:00:33.479Z,29.21
2022-08-07T19:03:01.715Z,29.76
2022-08-07T19:06:03.938Z,29.86
2022-08-07T19:08:20.341Z,29.58
2022-08-07T19:11:36.691Z,29.46
2022-08-07T19:14:17.279Z,29.27
2022-08-07T19:17:07.903Z,29.21
2022-08-07T19:19:59.316Z,28.86
2022-08-07T19:22:38.206Z,28.69
2022-08-07T19:26:23.467Z,28.45
2022-08-07T19:28:29.554Z,28.41
2022-08-07T19:31:41.455Z,28.99
2022-08-07T19:33:58.375Z,28.86
2022-08-07T19:36:27.740Z,28.49
2022-08-07T19:38:59.468Z,28.75
2022-08-07T19:41:39.121Z,28.79
2022-08-07T19:44:31.471Z,28.81
2022-08-07T19:47:06.857Z,28.86
2022-08-07T19:49:57.581Z,28.70
2022-08-07T19:52:31.332Z,28.95
2022-08-07T19:54:59.872Z,28.73
2022-08-07T19:57:51.305Z,28.79
2022-08-07T20:00:28.078Z,28.79
2022-08-07T20:03:02.944Z,28.21
2022-08-07T20:05:59.925Z,28.46
2022-08-07T20:08:30.360Z,28.34
2022-08-07T20:11:03.958Z,28.27
2022-08-07T20:13:50.248Z,27.99
2022-08-07T20:16:34.840Z,28.13
2022-08-07T20:19:10.070Z,28.28
2022-08-07T20:21:47.294Z,27.88
2022-08-07T20:24:22.694Z,27.83
2022-08-07T20:26:54.528Z,27.62
2022-08-07T20:29:48.671Z,27.73
2022-08-07T20:32:22.988Z,28.01
2022-08-07T20:34:58.054Z,27.20
2022-08-07T20:37:33.781Z,27.37
2022-08-07T20:40:05.409Z,26.92
2022-08-07T20:42:56.211Z,27.48
2022-08-07T20:45:32.790Z,27.33
2022-08-07T20:48:29.051Z,27.74
2022-08-07T20:51:02.952Z,27.82
2022-08-07T20:54:02.909Z,27.64
2022-08-07T20:56:28.609Z,27.80
2022-08-07T20:58:59.221Z,27.61
2022-08-07T21:01:36.322Z,27.62
2022-08-07T21:04:22.266Z,27.67
2022-08-07T21:06:55.103Z,27.59
2022-08-07T21:09:35.395Z,27.16
2022-08-07T21:12:28.870Z,27.11
2022-08-07T21:15:00.924Z,26.88
2022-08-07T21:18:01.876Z,26.57
2022-08-07T21:20:29.671Z,26.84
2022-08-07T21:23:27.878Z,27.01
2022-08-07T21:26:05.085Z,26.75
2022-08-07T21:28:50.898Z,26.78
2022-08-07T21:31:49.845Z,26.76
2022-08-07T21:35:05.829Z,26.91
2022-08-07T21:38:09.310Z,26.70
2022-08-07T21:40:43.660Z,26.71
2022-08-07T21:44:03.724Z,26.74
2022-08-07T21:46:45.436Z,26.65
2022-08-07T21:50:01.206Z,26.45
2022-08-07T21:52:37.075Z,26.43
2022-08-07T21:55:28.171Z,26.40
2022-08-07T21:58:35.835Z,26.25
2022-08-07T22:01:22.475Z,26.49
2022-08-07T22:04:17.737Z,26.47
2022-08-07T22:07:07.673Z,26.26
2022-08-07T22:09:53.793Z,26.39
2022-08-07T22:12:58.918Z,26.25
2022-08-07T22:16:42.409Z,26.22
2022-08-07T22:18:40.930Z,26.23
2022-08-07T22:21:21.270Z,26.33
2022-08-07T22:24:04.406Z,26.50
2022-08-07T22:26:53.893Z,26.18
2022-08-07T22:29:48.146Z,26.02
2022-08-07T22:32:35.472Z,25.99
2022-08-07T22:35:05.149Z,25.97
2022-08-07T22:38:25.810Z,25.85
2022-08-07T22:41:02.873Z,25.83
2022-08-07T22:43:37.522Z,25.81
2022-08-07T22:47:02.851Z,25.77
2022-08-07T22:49:11.204Z,25.80
2022-08-07T22:51:52.311Z,25.72
2022-08-07T22:54:49.252Z,25.46
2022-08-07T22:57:31.924Z,25.43
2022-08-07T23:00:16.944Z,25.67
2022-08-07T23:02:52.032Z,25.68
2022-08-07T23:06:15.216Z,25.23
2022-08-07T23:10:03.889Z,24.00
2022-08-07T23:12:53.875Z,23.58
2022-08-07T23:16:04.742Z,23.25
2022-08-07T23:18:32.097Z,24.06
2022-08-07T23:21:18.305Z,24.88
2022-08-07T23:24:16.724Z,24.90
2022-08-07T23:26:56.734Z,25.23
2022-08-07T23:29:43.313Z,24.82
2022-08-07T23:34:20.020Z,24.93
2022-08-07T23:35:58.484Z,23.15
2022-08-07T23:38:42.916Z,22.13
2022-08-07T23:41:33.410Z,21.78
2022-08-07T23:44:06.034Z,21.80
2022-08-07T23:46:43.328Z,21.88
2022-08-07T23:49:25.224Z,21.68
2022-08-07T23:52:59.825Z,21.74
2022-08-07T23:55:47.007Z,22.26
2022-08-07T23:58:26.377Z,23.35
